Time;durP1;ratioP1;P1;durP2;ratioP2;P2;SDS_P1;SDS_P2;PMS_P1;PMS_P2;Temp;Humidity;BMP_temperature;BMP_pressure;BME280_temperature;BME280_humidity;BME280_pressure;Samples;Min_cycle;Max_cycle;Signal;HPM_P1;HPM_P2
2022/07/08 00:02:00;;;;;;;11.18;5.55;;;;;;;13.67;100.00;96354.66;5052436;28;20111;-78
2022/07/08 00:04:26;;;;;;;10.68;5.68;;;;;;;13.68;100.00;96355.47;5052857;28;20048;-78
2022/07/08 00:06:51;;;;;;;8.98;5.75;;;;;;;13.63;100.00;96364.19;5052766;28;20043;-79
2022/07/08 00:09:17;;;;;;;10.80;5.70;;;;;;;13.63;100.00;96356.28;5053436;28;20090;-78
2022/07/08 00:11:43;;;;;;;11.20;6.28;;;;;;;13.63;100.00;96363.41;5035847;28;20099;-79
2022/07/08 00:14:10;;;;;;;10.57;6.20;;;;;;;13.73;100.00;96359.94;5053834;28;20036;-79
2022/07/08 00:16:40;;;;;;;12.63;6.38;;;;;;;13.57;100.00;96354.66;5035446;28;20044;-79
2022/07/08 00:19:14;;;;;;;9.05;6.00;;;;;;;13.57;100.00;96357.31;5037846;28;20110;-78
2022/07/08 00:21:45;;;;;;;10.68;6.60;;;;;;;13.59;100.00;96355.22;5052942;28;20049;-80
2022/07/08 00:24:12;;;;;;;12.18;6.30;;;;;;;13.65;100.00;96356.00;5051163;28;20037;-78
2022/07/08 00:26:38;;;;;;;11.00;6.55;;;;;;;13.52;100.00;96352.84;5050917;28;20507;-79
2022/07/08 00:29:04;;;;;;;12.68;7.43;;;;;;;13.49;100.00;96352.59;5046767;28;20041;-80
2022/07/08 00:31:29;;;;;;;10.25;6.55;;;;;;;13.51;100.00;96347.81;5037894;28;20033;-79
2022/07/08 00:33:55;;;;;;;10.82;6.50;;;;;;;13.40;100.00;96354.19;5052996;28;20053;-79
2022/07/08 00:36:20;;;;;;;11.77;6.43;;;;;;;13.44;100.00;96349.94;5051128;28;20044;-78
2022/07/08 00:38:46;;;;;;;11.55;6.90;;;;;;;13.51;100.00;96350.47;5049285;28;20037;-79
2022/07/08 00:41:12;;;;;;;10.57;6.35;;;;;;;13.43;100.00;96337.78;5049631;28;20122;-78
2022/07/08 00:43:40;;;;;;;11.20;7.20;;;;;;;13.39;100.00;96347.28;5053532;28;20117;-79
2022/07/08 00:46:06;;;;;;;15.00;6.95;;;;;;;13.44;100.00;96355.22;5052675;28;20179;-80
2022/07/08 00:48:31;;;;;;;10.40;6.70;;;;;;;13.32;100.00;96353.63;5052656;28;20037;-79
2022/07/08 00:50:59;;;;;;;13.98;6.72;;;;;;;13.37;100.00;96350.22;5049388;28;20076;-78
2022/07/08 00:53:27;;;;;;;13.00;6.78;;;;;;;13.43;100.00;96358.94;5047703;28;20045;-79
2022/07/08 00:55:53;;;;;;;14.60;7.25;;;;;;;13.42;100.00;96358.16;5037960;28;20402;-78
2022/07/08 00:58:20;;;;;;;10.80;7.25;;;;;;;13.44;100.00;96355.22;5042711;28;20049;-79
2022/07/08 01:00:46;;;;;;;15.57;7.25;;;;;;;13.50;100.00;96354.16;5025328;28;20075;-78
2022/07/08 01:03:12;;;;;;;14.93;6.90;;;;;;;13.36;100.00;96348.63;5052461;28;20070;-78
2022/07/08 01:05:38;;;;;;;11.90;7.15;;;;;;;13.30;100.00;96355.75;5052593;28;20048;-78
2022/07/08 01:08:04;;;;;;;14.20;6.85;;;;;;;13.39;100.00;96348.09;5045098;28;20038;-79
2022/07/08 01:10:29;;;;;;;11.43;6.80;;;;;;;13.28;100.00;96342.00;5032087;28;20033;-78
2022/07/08 01:12:56;;;;;;;14.65;7.53;;;;;;;13.28;100.00;96352.56;5052109;28;20033;-79
2022/07/08 01:15:22;;;;;;;18.05;6.93;;;;;;;13.34;100.00;96358.66;5033266;28;20514;-79
2022/07/08 01:17:48;;;;;;;13.77;7.43;;;;;;;13.34;100.00;96351.53;5051176;28;20108;-80
2022/07/08 01:20:15;;;;;;;11.13;7.43;;;;;;;13.31;100.00;96352.03;5049846;28;20068;-80
2022/07/08 01:22:41;;;;;;;12.63;7.38;;;;;;;13.34;100.00;96348.88;5052464;28;20407;-80
2022/07/08 01:25:08;;;;;;;13.02;7.85;;;;;;;13.29;100.00;96359.44;5052176;28;20033;-80
2022/07/08 01:27:35;;;;;;;13.52;7.90;;;;;;;13.26;100.00;96359.97;5049098;28;20407;-80
2022/07/08 01:30:01;;;;;;;12.52;7.70;;;;;;;13.30;100.00;96355.75;5033952;28;20045;-79
2022/07/08 01:32:31;;;;;;;12.10;7.72;;;;;;;13.27;100.00;96350.97;5053435;28;20508;-80
2022/07/08 01:34:57;;;;;;;11.25;7.40;;;;;;;13.32;100.00;96353.63;5046953;28;20048;-79
2022/07/08 01:37:22;;;;;;;11.35;7.80;;;;;;;13.27;100.00;96355.47;5034921;28;20041;-78
2022/07/08 01:39:48;;;;;;;11.75;7.20;;;;;;;13.24;100.00;96359.44;5047032;28;20511;-79
2022/07/08 01:42:13;;;;;;;12.52;7.85;;;;;;;13.26;100.00;96365.28;5052213;28;20510;-79
2022/07/08 01:44:39;;;;;;;11.27;7.95;;;;;;;13.29;100.00;96358.66;5050739;28;20044;-78
2022/07/08 01:47:04;;;;;;;16.50;8.07;;;;;;;13.22;100.00;96364.22;5052125;28;20044;-79
2022/07/08 01:49:30;;;;;;;14.18;7.57;;;;;;;13.30;100.00;96361.03;5048055;28;20403;-78
2022/07/08 01:51:55;;;;;;;13.07;7.18;;;;;;;13.30;100.00;96366.31;5048607;28;20045;-78
2022/07/08 01:54:20;;;;;;;13.98;8.25;;;;;;;13.35;100.00;96370.84;5051408;28;20052;-78
2022/07/08 01:56:46;;;;;;;11.00;7.28;;;;;;;13.27;100.00;96366.84;5052334;28;20045;-78
2022/07/08 01:59:12;;;;;;;11.40;6.93;;;;;;;13.33;100.00;96373.72;5048457;28;20042;-79
2022/07/08 02:01:37;;;;;;;13.38;7.47;;;;;;;13.33;100.00;96365.78;5052781;28;20082;-79
2022/07/08 02:04:03;;;;;;;13.00;7.30;;;;;;;13.40;100.00;96375.31;5051786;28;20482;-80
2022/07/08 02:06:28;;;;;;;15.50;8.18;;;;;;;13.29;100.00;96370.03;5052847;28;20045;-81
2022/07/08 02:08:54;;;;;;;15.48;7.47;;;;;;;13.36;100.00;96363.69;5042077;28;20041;-80
2022/07/08 02:14:04;;;;;;;13.55;8.07;;;;;;;13.24;100.00;96362.06;5051314;28;20530;-80
2022/07/08 02:16:29;;;;;;;9.98;6.72;;;;;;;13.36;100.00;96377.72;5034483;28;20048;-79
2022/07/08 02:18:55;;;;;;;18.27;7.35;;;;;;;13.30;100.00;96376.91;5043288;28;20119;-79
2022/07/08 02:21:20;;;;;;;14.20;6.90;;;;;;;13.31;100.00;96378.47;5033976;28;20064;-81
2022/07/08 02:23:46;;;;;;;10.48;6.05;;;;;;;13.33;100.00;96376.38;5020762;28;20057;-80
2022/07/08 02:26:11;;;;;;;11.65;6.72;;;;;;;13.23;100.00;96371.09;5049704;28;20045;-79
2022/07/08 02:28:37;;;;;;;10.13;5.78;;;;;;;13.21;100.00;96378.47;5052394;28;20045;-78
2022/07/08 02:31:02;;;;;;;10.75;5.53;;;;;;;13.23;100.00;96389.59;5033798;28;20052;-80
2022/07/08 02:33:28;;;;;;;11.15;5.53;;;;;;;13.21;100.00;96378.47;5050559;28;20033;-79
2022/07/08 02:35:53;;;;;;;13.32;6.28;;;;;;;13.26;100.00;96396.97;5047541;28;20069;-81
2022/07/08 02:38:20;;;;;;;11.35;5.22;;;;;;;13.20;100.00;96402.53;5051486;28;20506;-80
2022/07/08 02:40:46;;;;;;;13.43;4.30;;;;;;;13.15;100.00;96393.53;5032982;28;20041;-80
2022/07/08 02:43:11;;;;;;;9.30;3.70;;;;;;;13.12;100.00;96411.78;5033157;28;20051;-79
2022/07/08 02:45:38;;;;;;;8.48;3.85;;;;;;;13.09;100.00;96412.31;5053395;28;20048;-78
2022/07/08 02:48:06;;;;;;;8.40;3.90;;;;;;;12.94;100.00;96405.94;5050880;28;20451;-78
2022/07/08 02:50:31;;;;;;;9.30;3.85;;;;;;;12.88;100.00;96406.97;5042795;28;20103;-79
2022/07/08 02:52:57;;;;;;;11.77;4.25;;;;;;;12.83;100.00;96426.25;5032684;28;20088;-78
2022/07/08 02:55:22;;;;;;;8.55;3.25;;;;;;;12.85;100.00;96428.63;5049645;28;20043;-79
2022/07/08 02:57:48;;;;;;;11.00;3.45;;;;;;;12.73;100.00;96425.44;5031781;28;20175;-80
2022/07/08 03:00:14;;;;;;;6.95;3.30;;;;;;;12.69;100.00;96434.94;5045408;28;20053;-78
2022/07/08 03:02:39;;;;;;;13.50;3.85;;;;;;;12.70;100.00;96425.94;5049895;28;20041;-78
2022/07/08 03:05:05;;;;;;;7.57;3.53;;;;;;;12.59;100.00;96431.22;5032294;28;20037;-77
2022/07/08 03:07:30;;;;;;;10.75;3.97;;;;;;;12.64;100.00;96443.63;5047115;28;20048;-80
2022/07/08 03:09:56;;;;;;;10.18;3.65;;;;;;;12.56;100.00;96438.88;5045483;28;20048;-80
2022/07/08 03:12:21;;;;;;;8.23;3.70;;;;;;;12.51;100.00;96444.91;5048318;28;20072;-81
2022/07/08 03:14:47;;;;;;;7.75;3.33;;;;;;;12.56;100.00;96458.13;5049088;28;20442;-80
2022/07/08 03:17:12;;;;;;;9.15;3.67;;;;;;;12.56;100.00;96458.13;5050097;28;20044;-80
2022/07/08 03:19:38;;;;;;;12.35;3.65;;;;;;;12.52;100.00;96459.69;5046144;28;20043;-79
2022/07/08 03:22:04;;;;;;;7.25;3.65;;;;;;;12.41;100.00;96472.06;5048605;28;20083;-82
2022/07/08 03:24:29;;;;;;;11.27;3.50;;;;;;;12.43;100.00;96482.38;5031151;28;20454;-81
2022/07/08 03:26:56;;;;;;;8.50;3.13;;;;;;;12.37;100.00;96480.75;5028204;28;20112;-81
2022/07/08 03:29:21;;;;;;;10.63;3.28;;;;;;;12.39;100.00;96494.50;5030006;28;20056;-79
2022/07/08 03:31:47;;;;;;;5.40;2.90;;;;;;;12.37;100.00;96493.94;5027712;28;20048;-79
2022/07/08 03:34:12;;;;;;;8.48;2.97;;;;;;;12.18;100.00;96494.34;5053419;28;20047;-78
2022/07/08 03:36:38;;;;;;;6.85;2.70;;;;;;;12.19;100.00;96495.97;5052672;28;20049;-79
2022/07/08 03:39:04;;;;;;;6.22;2.67;;;;;;;12.10;100.00;96497.50;5054069;28;20037;-78
2022/07/08 03:41:29;;;;;;;10.90;3.00;;;;;;;12.09;100.00;96506.44;5054452;28;20120;-78
2022/07/08 03:43:55;;;;;;;12.55;3.22;;;;;;;12.07;100.00;96509.34;5055469;28;20151;-80
2022/07/08 03:46:21;;;;;;;9.68;3.05;;;;;;;12.08;100.00;96515.41;5056685;28;20055;-78
2022/07/08 03:48:47;;;;;;;11.57;2.60;;;;;;;12.08;100.00;96515.41;5055398;28;20048;-81
2022/07/08 03:51:14;;;;;;;15.02;3.50;;;;;;;12.04;100.00;96519.59;5020232;28;20049;-81
2022/07/08 03:53:39;;;;;;;10.98;3.00;;;;;;;12.03;100.00;96528.59;5055895;28;20037;-80
2022/07/08 03:56:05;;;;;;;9.55;3.10;;;;;;;12.03;100.00;96533.84;5055494;28;20063;-81
2022/07/08 03:58:32;;;;;;;8.50;2.55;;;;;;;11.90;100.00;96522.66;5053850;28;20045;-80
2022/07/08 04:00:57;;;;;;;11.65;2.88;;;;;;;11.91;100.00;96532.16;5036850;28;20132;-79
2022/07/08 04:03:23;;;;;;;10.25;2.83;;;;;;;11.93;100.00;96556.47;5055909;28;20116;-79
2022/07/08 04:05:48;;;;;;;6.32;2.47;;;;;;;12.00;100.00;96558.09;5053600;28;20033;-79
2022/07/08 04:08:14;;;;;;;10.23;2.67;;;;;;;11.96;100.00;96560.44;5048875;28;20037;-81
2022/07/08 04:10:39;;;;;;;10.48;2.92;;;;;;;11.89;100.00;96568.53;5049841;28;20043;-80
2022/07/08 04:13:05;;;;;;;10.50;2.97;;;;;;;11.86;100.00;96566.41;5053115;28;20041;-80
2022/07/08 04:15:30;;;;;;;14.30;3.05;;;;;;;11.88;100.00;96558.22;5054930;28;20041;-80
2022/07/08 04:17:56;;;;;;;8.77;2.80;;;;;;;11.90;100.00;96567.50;5037350;28;20079;-79
2022/07/08 04:20:21;;;;;;;12.50;2.97;;;;;;;11.94;100.00;96568.59;5053074;28;20044;-81
2022/07/08 04:22:47;;;;;;;12.57;3.45;;;;;;;11.90;100.00;96572.75;5055422;28;20522;-80
2022/07/08 04:25:13;;;;;;;8.38;2.63;;;;;;;11.93;100.00;96567.00;5053715;28;20048;-79
2022/07/08 04:27:38;;;;;;;5.57;2.40;;;;;;;11.89;100.00;96570.38;5032938;28;20075;-79
2022/07/08 04:30:04;;;;;;;8.57;2.58;;;;;;;11.91;100.00;96577.00;5037066;28;20049;-80
2022/07/08 04:32:30;;;;;;;7.78;2.50;;;;;;;11.94;100.00;96571.25;5037443;28;20757;-81
2022/07/08 04:34:59;;;;;;;9.63;2.42;;;;;;;11.97;100.00;96572.59;5054758;28;20045;-79
2022/07/08 04:37:27;;;;;;;7.75;2.88;;;;;;;11.94;100.00;96584.44;5037546;28;20037;-79
2022/07/08 04:39:53;;;;;;;6.22;2.55;;;;;;;12.02;100.00;96590.31;5034699;28;20045;-78
2022/07/08 04:42:19;;;;;;;6.47;2.65;;;;;;;12.00;100.00;96587.91;5038163;28;20041;-79
2022/07/08 04:44:44;;;;;;;9.82;2.72;;;;;;;12.05;100.00;96595.06;5053219;28;20453;-79
2022/07/08 04:47:10;;;;;;;8.43;2.83;;;;;;;12.06;100.00;96588.75;5052828;28;20076;-79
2022/07/08 04:49:35;;;;;;;12.00;2.75;;;;;;;12.11;100.00;96580.84;5049543;28;20395;-78
2022/07/08 04:52:01;;;;;;;12.07;2.95;;;;;;;12.01;100.00;96588.69;5051549;28;20036;-79
2022/07/08 04:54:27;;;;;;;7.32;2.50;;;;;;;11.99;100.00;96596.88;5050305;28;20056;-80
2022/07/08 04:56:53;;;;;;;12.10;3.08;;;;;;;12.06;100.00;96602.72;5049759;28;20060;-80
2022/07/08 04:59:19;;;;;;;6.53;2.30;;;;;;;12.07;100.00;96599.06;5051627;28;20103;-79
2022/07/08 05:01:44;;;;;;;6.28;2.30;;;;;;;11.98;100.00;96594.47;5052508;28;20045;-78
2022/07/08 05:04:10;;;;;;;6.50;2.30;;;;;;;12.01;98.41;96600.06;5051525;28;20037;-78
2022/07/08 05:06:36;;;;;;;12.73;2.58;;;;;;;12.12;100.00;96600.94;5033049;28;20052;-78
2022/07/08 05:09:01;;;;;;;6.72;2.25;;;;;;;12.05;97.04;96595.06;5029921;28;20468;-79
2022/07/08 05:11:27;;;;;;;10.40;2.70;;;;;;;12.11;99.75;96594.06;5032870;28;20045;-79
2022/07/08 05:13:52;;;;;;;9.18;2.90;;;;;;;12.13;98.10;96597.25;5051760;28;20037;-78
2022/07/08 05:16:18;;;;;;;5.88;2.25;;;;;;;12.15;100.00;96592.50;5033676;28;20037;-79
2022/07/08 05:18:43;;;;;;;8.27;2.33;;;;;;;12.29;97.38;96608.72;5049304;28;20049;-78
2022/07/08 05:21:09;;;;;;;8.50;2.20;;;;;;;12.26;93.95;96604.72;5051768;28;20052;-79
2022/07/08 05:23:34;;;;;;;10.38;2.58;;;;;;;12.19;93.34;96612.06;5051195;28;20048;-78
2022/07/08 05:26:00;;;;;;;11.93;2.55;;;;;;;12.16;96.57;96612.56;5047466;28;20490;-79
2022/07/08 05:28:25;;;;;;;9.38;2.20;;;;;;;12.19;97.46;96617.34;5046034;28;20419;-80
2022/07/08 05:30:51;;;;;;;7.13;2.53;;;;;;;12.01;91.41;96597.44;5032721;28;20049;-81
2022/07/08 05:33:16;;;;;;;7.38;2.30;;;;;;;12.19;92.43;96622.63;5031129;28;20107;-80
2022/07/08 05:35:42;;;;;;;7.25;2.38;;;;;;;12.25;94.30;96616.31;5033464;28;20116;-80
2022/07/08 05:38:07;;;;;;;7.20;2.20;;;;;;;12.36;93.71;96624.34;5050601;28;20037;-80
2022/07/08 05:40:33;;;;;;;6.75;2.58;;;;;;;12.42;91.93;96628.59;5047963;28;20102;-78
2022/07/08 05:42:58;;;;;;;10.15;2.40;;;;;;;12.54;90.23;96623.94;5034551;28;20190;-77
2022/07/08 05:45:24;;;;;;;9.10;2.38;;;;;;;12.54;93.99;96621.31;5052858;28;20037;-79
2022/07/08 05:47:50;;;;;;;12.88;2.30;;;;;;;12.56;96.39;96619.19;5049505;28;20467;-83
2022/07/08 05:50:15;;;;;;;10.20;2.22;;;;;;;12.59;92.41;96629.25;5031810;28;20426;-79
2022/07/08 05:52:41;;;;;;;8.30;2.38;;;;;;;12.34;91.25;96613.22;5052614;28;20126;-80
2022/07/08 05:55:07;;;;;;;6.57;2.00;;;;;;;12.38;91.91;96624.88;5035497;28;20335;-77
2022/07/08 05:57:32;;;;;;;6.43;2.00;;;;;;;12.32;94.26;96621.41;5033328;28;20471;-82
2022/07/08 05:59:57;;;;;;;6.05;2.30;;;;;;;12.27;94.62;96632.72;5031618;28;20049;-78
2022/07/08 06:02:23;;;;;;;9.80;2.40;;;;;;;12.33;91.08;96638.84;5040547;28;20045;-78
2022/07/08 06:04:48;;;;;;;9.90;2.10;;;;;;;12.34;95.82;96639.63;5048243;28;20029;-76
2022/07/08 06:07:14;;;;;;;4.30;1.98;;;;;;;12.32;96.75;96631.19;5048151;28;20036;-80
2022/07/08 06:09:39;;;;;;;9.13;2.13;;;;;;;12.35;91.24;96631.44;5030962;28;20048;-78
2022/07/08 06:12:05;;;;;;;6.57;1.90;;;;;;;12.28;93.17;96626.41;5046814;28;20056;-76
2022/07/08 06:14:31;;;;;;;8.18;2.47;;;;;;;12.37;92.02;96628.56;5051249;28;20422;-76
2022/07/08 06:16:56;;;;;;;7.80;2.10;;;;;;;12.46;92.89;96634.97;5032867;28;20103;-78
2022/07/08 06:19:25;;;;;;;5.57;1.95;;;;;;;12.47;91.52;96644.50;5032182;28;20521;-77
2022/07/08 06:21:51;;;;;;;8.07;2.00;;;;;;;12.38;89.94;96646.78;5050813;28;20041;-79
2022/07/08 06:24:17;;;;;;;5.25;1.75;;;;;;;12.42;88.87;96633.88;5040535;28;20048;-79
2022/07/08 06:26:43;;;;;;;8.02;2.10;;;;;;;12.53;90.70;96643.47;5048472;28;20120;-79
2022/07/08 06:29:09;;;;;;;8.95;2.33;;;;;;;12.47;89.61;96644.50;5049761;28;20037;-77
2022/07/08 06:31:38;;;;;;;6.22;2.00;;;;;;;12.58;88.97;96656.69;5050830;28;20114;-77
2022/07/08 06:34:04;;;;;;;7.40;2.53;;;;;;;12.58;88.57;96648.78;5032891;28;20127;-77
2022/07/08 06:36:29;;;;;;;5.00;2.05;;;;;;;12.51;87.34;96645.56;5048044;28;20124;-76
2022/07/08 06:38:55;;;;;;;9.07;2.47;;;;;;;12.57;88.23;96646.38;5046627;28;20436;-78
2022/07/08 06:41:21;;;;;;;11.35;2.22;;;;;;;12.70;91.08;96647.78;5037989;28;20056;-76
2022/07/08 06:43:47;;;;;;;10.70;2.47;;;;;;;12.63;88.68;96648.81;5050472;28;20454;-76
2022/07/08 06:46:13;;;;;;;8.60;2.33;;;;;;;12.67;86.30;96656.22;5032911;28;20414;-76
2022/07/08 06:48:39;;;;;;;8.27;2.05;;;;;;;12.71;86.60;96650.19;5049653;28;20098;-77
2022/07/08 06:51:04;;;;;;;6.55;1.85;;;;;;;12.70;87.47;96645.16;5046659;28;20037;-78
2022/07/08 06:54:34;;;;;;;5.20;1.83;;;;;;;12.66;84.02;96647.53;5050200;28;20487;-77
2022/07/08 06:56:16;;;;;;;6.18;2.03;;;;;;;12.69;87.35;96651.50;5049384;28;20501;-79
2022/07/08 06:58:42;;;;;;;8.63;2.13;;;;;;;12.88;85.76;96650.03;5049624;28;20052;-76
2022/07/08 07:01:07;;;;;;;7.90;2.05;;;;;;;12.92;82.89;96655.59;5050631;28;20491;-82
2022/07/08 07:03:33;;;;;;;6.93;2.00;;;;;;;12.92;83.09;96655.59;5032703;28;20471;-80
2022/07/08 07:05:58;;;;;;;6.85;2.00;;;;;;;12.91;81.22;96665.34;5030812;28;20127;-77
2022/07/08 07:08:24;;;;;;;7.60;1.95;;;;;;;12.80;81.01;96655.78;5046080;28;20423;-77
2022/07/08 07:10:49;;;;;;;7.43;2.08;;;;;;;12.93;82.50;96662.44;5046757;28;20059;-79
2022/07/08 07:13:15;;;;;;;6.88;2.17;;;;;;;13.05;83.23;96664.91;5049672;28;20041;-78
2022/07/08 07:15:40;;;;;;;6.00;2.25;;;;;;;13.21;84.36;96669.22;5032074;28;20128;-79
2022/07/08 07:18:08;;;;;;;8.27;1.90;;;;;;;13.10;80.37;96655.16;5049388;28;20197;-78
2022/07/08 07:20:35;;;;;;;7.22;2.30;;;;;;;13.10;81.11;96651.72;5030209;28;20041;-79
2022/07/08 07:23:00;;;;;;;8.95;2.00;;;;;;;13.48;83.53;96666.44;5048871;28;20106;-80
2022/07/08 07:25:26;;;;;;;6.93;2.28;;;;;;;13.50;80.21;96671.47;5046869;28;20503;-79
2022/07/08 07:27:52;;;;;;;6.35;2.10;;;;;;;13.59;81.37;96675.22;5031859;28;20049;-77
2022/07/08 07:30:19;;;;;;;6.90;2.00;;;;;;;13.51;80.63;96673.84;5045581;28;20052;-80
2022/07/08 07:32:45;;;;;;;8.38;2.13;;;;;;;13.66;84.11;96675.78;5048607;28;20044;-79
2022/07/08 07:35:10;;;;;;;7.57;2.20;;;;;;;13.61;83.08;96673.09;5045580;28;20049;-77
2022/07/08 07:37:37;;;;;;;4.95;2.13;;;;;;;13.54;79.99;96672.56;5047305;28;20045;-78
2022/07/08 07:40:04;;;;;;;4.30;2.10;;;;;;;13.84;87.04;96676.34;5026117;28;20691;-82
2022/07/08 07:42:30;;;;;;;4.90;2.10;;;;;;;13.96;82.30;96674.25;5046294;28;20037;-81
2022/07/08 07:44:55;;;;;;;6.97;2.08;;;;;;;13.98;80.80;96677.44;5049248;28;20056;-79
2022/07/08 07:47:21;;;;;;;8.32;2.20;;;;;;;13.96;80.63;96684.81;5028422;28;20067;-77
2022/07/08 07:49:46;;;;;;;5.70;2.17;;;;;;;13.77;80.12;96694.31;5027844;28;20083;-76
2022/07/08 07:52:12;;;;;;;5.53;2.00;;;;;;;13.83;80.16;96690.63;5047619;28;20551;-80
2022/07/08 07:54:37;;;;;;;4.65;2.33;;;;;;;13.85;79.58;96680.59;5048394;28;20112;-78
2022/07/08 07:57:03;;;;;;;5.13;2.45;;;;;;;13.82;79.14;96689.03;5029968;28;20114;-77
2022/07/08 07:59:29;;;;;;;9.43;2.28;;;;;;;13.97;80.88;96686.41;5048544;28;20458;-77
2022/07/08 08:01:54;;;;;;;11.82;2.33;;;;;;;13.83;80.74;96696.72;5030356;28;20056;-78
2022/07/08 08:04:20;;;;;;;6.45;2.10;;;;;;;14.06;81.23;96688.56;5047908;28;20112;-77
2022/07/08 08:06:45;;;;;;;6.70;2.45;;;;;;;14.11;82.84;96693.88;5029222;28;20048;-76
2022/07/08 08:09:11;;;;;;;7.55;2.20;;;;;;;14.06;82.43;96693.84;5049497;28;20037;-77
2022/07/08 08:11:36;;;;;;;7.15;2.50;;;;;;;14.07;84.93;96695.44;5038707;28;20781;-77
2022/07/08 08:14:02;;;;;;;5.32;2.25;;;;;;;13.79;80.70;96697.50;5045735;28;20096;-77
2022/07/08 08:16:27;;;;;;;6.53;2.10;;;;;;;14.02;81.24;96694.38;5047027;28;20045;-77
2022/07/08 08:18:53;;;;;;;8.75;2.22;;;;;;;13.98;79.55;96701.25;5028291;28;20116;-77
2022/07/08 08:21:19;;;;;;;7.18;2.35;;;;;;;14.00;78.49;96701.78;5033344;28;20466;-77
2022/07/08 08:23:44;;;;;;;6.03;2.15;;;;;;;14.03;79.92;96695.94;5049898;28;20142;-77
2022/07/08 08:26:10;;;;;;;7.90;2.28;;;;;;;14.18;82.75;96697.84;5043214;28;20112;-76
2022/07/08 08:28:35;;;;;;;8.27;3.20;;;;;;;14.33;79.92;96702.34;5050600;28;20399;-78
2022/07/08 08:31:00;;;;;;;6.63;2.20;;;;;;;14.03;79.40;96711.03;5055536;28;20079;-77
2022/07/08 08:33:26;;;;;;;5.18;1.80;;;;;;;13.72;81.27;96702.22;5048421;28;20067;-76
2022/07/08 08:35:51;;;;;;;9.60;2.42;;;;;;;13.95;81.23;96699.13;5043543;28;20041;-77
2022/07/08 08:38:17;;;;;;;8.45;2.63;;;;;;;13.87;82.68;96702.28;5051869;28;20530;-77
2022/07/08 08:40:44;;;;;;;8.50;2.40;;;;;;;14.16;82.53;96693.88;5033214;28;20076;-77
2022/07/08 08:43:09;;;;;;;6.00;2.30;;;;;;;14.27;80.29;96689.38;5033732;28;20044;-76
2022/07/08 08:45:36;;;;;;;8.68;2.53;;;;;;;14.43;80.39;96687.53;5034792;28;20041;-76
2022/07/08 08:48:07;;;;;;;7.75;2.30;;;;;;;14.42;81.86;96699.19;5033006;28;20037;-76
2022/07/08 08:50:53;;;;;;;5.72;2.28;;;;;;;14.51;81.11;96700.22;5032944;28;20116;-77
2022/07/08 08:53:43;;;;;;;7.97;2.30;;;;;;;14.42;82.65;96701.84;5051005;28;20033;-77
2022/07/08 08:56:10;;;;;;;8.70;2.50;;;;;;;14.49;83.58;96702.38;5050185;28;20061;-77
2022/07/08 08:58:40;;;;;;;7.43;2.40;;;;;;;14.53;80.76;96708.72;5050392;28;20049;-77
2022/07/08 09:01:07;;;;;;;13.32;2.92;;;;;;;14.42;81.31;96704.47;5049905;28;20095;-77
2022/07/08 09:03:33;;;;;;;8.57;2.65;;;;;;;14.50;80.66;96709.25;5032832;28;20064;-78
2022/07/08 09:05:59;;;;;;;8.35;2.50;;;;;;;14.66;82.75;96708.22;5033176;28;20041;-77
2022/07/08 09:08:24;;;;;;;7.82;2.40;;;;;;;14.70;79.70;96714.56;5048618;28;20087;-77
2022/07/08 09:10:49;;;;;;;6.88;2.35;;;;;;;14.84;78.91;96708.72;5048749;28;20090;-78
2022/07/08 09:13:16;;;;;;;6.03;2.30;;;;;;;14.78;79.62;96707.16;5048280;28;20045;-76
2022/07/08 09:15:45;;;;;;;8.68;2.75;;;;;;;14.94;80.45;96708.75;5030866;28;20120;-78
2022/07/08 09:18:19;;;;;;;6.85;2.63;;;;;;;14.81;79.64;96709.25;5049739;28;20045;-77
2022/07/08 09:20:54;;;;;;;8.23;2.60;;;;;;;14.78;81.12;96715.88;5031304;28;20545;-78
2022/07/08 09:23:21;;;;;;;6.10;2.60;;;;;;;14.96;80.35;96711.91;5031290;28;20065;-77
2022/07/08 09:25:52;;;;;;;6.97;2.50;;;;;;;15.16;79.29;96715.59;5048337;28;20044;-79
2022/07/08 09:28:32;;;;;;;7.05;2.70;;;;;;;15.06;78.07;96706.56;5032409;28;20147;-79
2022/07/08 09:30:59;;;;;;;9.52;2.47;;;;;;;15.23;79.77;96710.78;5047992;28;20533;-80
2022/07/08 09:33:25;;;;;;;6.47;2.40;;;;;;;15.15;79.02;96708.69;5051606;28;20441;-81
2022/07/08 09:35:51;;;;;;;6.80;2.45;;;;;;;15.20;77.57;96708.66;5041184;28;20049;-81
2022/07/08 09:38:20;;;;;;;6.55;2.53;;;;;;;15.32;76.54;96709.16;5049955;28;20120;-79
2022/07/08 09:41:01;;;;;;;6.43;2.50;;;;;;;15.61;76.10;96705.88;5041973;28;20053;-77
2022/07/08 09:43:26;;;;;;;9.02;2.75;;;;;;;15.63;74.89;96706.41;5050390;28;20465;-77
2022/07/08 09:45:53;;;;;;;5.63;2.40;;;;;;;15.51;73.46;96705.91;5032969;28;20037;-77
2022/07/08 09:48:19;;;;;;;9.45;2.75;;;;;;;15.32;74.76;96714.47;5048373;28;20582;-77
2022/07/08 09:50:47;;;;;;;3.72;2.25;;;;;;;15.49;74.30;96716.03;5020195;28;20037;-77
2022/07/08 09:53:20;;;;;;;5.90;2.47;;;;;;;15.42;75.34;96698.50;5051082;28;20041;-77
2022/07/08 09:55:51;;;;;;;8.95;2.50;;;;;;;15.45;77.32;96712.31;5038283;28;20037;-80
2022/07/08 09:58:19;;;;;;;6.47;2.65;;;;;;;15.16;73.72;96707.63;5049125;28;20045;-76
2022/07/08 10:00:45;;;;;;;6.32;2.45;;;;;;;15.79;76.58;96711.66;5047148;28;20064;-77
2022/07/08 10:03:12;;;;;;;9.55;2.80;;;;;;;16.06;76.55;96717.38;5029196;28;20045;-78
2022/07/08 10:05:39;;;;;;;9.40;2.30;;;;;;;16.17;74.51;96712.00;5049045;28;20049;-77
2022/07/08 10:08:05;;;;;;;7.28;2.75;;;;;;;16.18;71.95;96713.59;5041796;28;20725;-78
2022/07/08 10:10:32;;;;;;;6.22;2.35;;;;;;;15.99;73.13;96711.56;5031123;28;20044;-78
2022/07/08 10:12:59;;;;;;;5.20;2.38;;;;;;;16.35;69.47;96703.38;5050269;28;20046;-78
2022/07/08 10:15:26;;;;;;;7.40;2.30;;;;;;;16.91;72.79;96711.97;5032302;28;20033;-81
2022/07/08 10:17:52;;;;;;;10.15;3.30;;;;;;;16.90;67.78;96697.09;5028839;28;20056;-79
2022/07/08 10:20:21;;;;;;;5.38;2.88;;;;;;;16.56;69.20;96703.22;5059172;28;20092;-77
2022/07/08 10:22:51;;;;;;;8.18;2.20;;;;;;;16.51;69.22;96696.06;5078657;28;20028;-77
2022/07/08 10:25:20;;;;;;;7.15;2.40;;;;;;;16.73;68.42;96702.81;5068563;28;20032;-77
2022/07/08 10:27:46;;;;;;;11.13;2.60;;;;;;;16.80;68.08;96709.38;5064917;28;20041;-76
2022/07/08 10:30:18;;;;;;;6.00;2.42;;;;;;;16.83;67.54;96701.94;5071231;28;21216;-76
2022/07/08 10:32:52;;;;;;;8.13;2.80;;;;;;;16.74;68.71;96699.88;5050268;28;20040;-77
2022/07/08 10:35:20;;;;;;;4.15;2.30;;;;;;;17.03;67.99;96700.97;5070394;28;20092;-78
2022/07/08 10:37:51;;;;;;;7.47;2.40;;;;;;;17.05;68.36;96704.94;5070050;28;20062;-76
2022/07/08 10:40:41;;;;;;;7.13;2.60;;;;;;;17.36;66.55;96709.13;5070473;28;20029;-76
2022/07/08 10:43:19;;;;;;;10.77;2.60;;;;;;;17.72;65.26;96701.50;5075340;28;20033;-76
2022/07/08 10:46:03;;;;;;;5.22;2.53;;;;;;;17.83;63.67;96708.28;5073890;28;20020;-76
2022/07/08 10:48:44;;;;;;;;;;;;;;;17.89;65.49;96700.25;5074407;28;20037;-76
2022/07/08 10:51:24;;;;;;;4.63;2.35;;;;;;;17.42;64.82;96706.13;5067250;28;19909;-76
2022/07/08 10:53:59;;;;;;;7.65;2.88;;;;;;;17.28;65.42;96702.56;5076151;28;20049;-75
2022/07/08 10:56:50;;;;;;;6.45;2.58;;;;;;;17.57;66.57;96704.34;5058798;28;20037;-75
2022/07/08 10:59:22;;;;;;;4.63;2.20;;;;;;;17.53;65.57;96703.31;5074926;28;20033;-75
2022/07/08 11:01:54;;;;;;;5.20;2.42;;;;;;;17.91;63.55;96703.44;5072047;28;20033;-76
2022/07/08 11:04:36;;;;;;;11.15;2.42;;;;;;;17.96;59.53;96695.38;5058180;28;20111;-80
2022/07/08 11:07:37;;;;;;;6.95;2.33;;;;;;;17.75;60.92;96700.94;5047257;28;20044;-81
2022/07/08 11:10:06;;;;;;;8.38;2.53;;;;;;;17.36;63.48;96683.31;5039604;28;20045;-80
2022/07/08 11:12:34;;;;;;;8.27;2.50;;;;;;;18.06;61.08;96684.56;5030849;28;20064;-77
2022/07/08 11:15:01;;;;;;;5.53;2.45;;;;;;;18.06;63.38;96679.25;5044116;28;20498;-80
2022/07/08 11:17:36;;;;;;;6.68;2.30;;;;;;;18.33;61.21;96673.25;5042284;28;20041;-77
2022/07/08 11:20:06;;;;;;;7.97;2.50;;;;;;;18.75;59.06;96684.03;5049231;28;20052;-78
2022/07/08 11:22:34;;;;;;;7.88;2.47;;;;;;;18.31;60.34;96680.72;5031174;28;20044;-79
2022/07/08 11:25:00;;;;;;;6.20;2.40;;;;;;;18.17;60.86;96696.66;5048661;28;20037;-79
2022/07/08 11:27:31;;;;;;;5.55;2.47;;;;;;;18.18;59.11;96695.56;5047587;28;20052;-77
2022/07/08 11:29:57;;;;;;;7.53;2.80;;;;;;;18.65;57.00;96689.53;5030369;28;20063;-77